Terminal Aerodrome Forecast
Issued by NWS Cleveland, OH

Home | Current Version | Previous Version | Text Only | Print | Product List | Glossary On
Versions: 1 2 3 4 5 6 7 8 9 10 11 12 13 14 15
664
FTUS41 KCLE 272337
TAFCAK
TAF
KCAK 272337Z 2800/2824 01006KT P6SM BKN050
     FM280800 05005KT 4SM BR BKN030
     FM281400 03010KT P6SM BKN025
     FM282000 02012G20KT P6SM BKN035=

USA.gov is the U.S. government's official web portal to all federal, state and local government web resources and services.